createdAt,value
2023-01-05T00:04:14.669Z,25.15
2023-01-05T00:10:35.286Z,18.65
2023-01-05T00:16:55.486Z,12.88
2023-01-05T00:22:57.317Z,15.57
2023-01-05T00:28:59.031Z,13.63
2023-01-05T00:35:02.202Z,19.27
2023-01-05T00:41:03.979Z,14.90
2023-01-05T00:47:05.728Z,19.40
2023-01-05T00:53:07.477Z,21.35
2023-01-05T00:59:10.098Z,18.63
2023-01-05T01:05:12.446Z,19.35
2023-01-05T01:11:16.563Z,19.05
2023-01-05T01:17:18.459Z,12.30
2023-01-05T01:23:20.175Z,20.55
2023-01-05T01:29:23.119Z,18.25
2023-01-05T01:35:24.896Z,14.98
2023-01-05T01:41:27.097Z,16.15
2023-01-05T01:47:35.003Z,17.73
2023-01-05T01:53:41.509Z,16.25
2023-01-05T01:59:43.523Z,26.02
2023-01-05T02:05:45.300Z,14.93
2023-01-05T02:12:09.789Z,16.40
2023-01-05T02:18:40.293Z,17.17
2023-01-05T02:25:00.447Z,16.30
2023-01-05T02:31:20.364Z,18.95
2023-01-05T02:37:40.157Z,20.23
2023-01-05T02:43:45.217Z,20.05
2023-01-05T02:49:46.992Z,18.23
2023-01-05T02:55:55.066Z,18.17
2023-01-05T03:02:00.389Z,17.30
2023-01-05T03:08:09.243Z,20.83
2023-01-05T03:14:19.555Z,15.68
2023-01-05T03:20:27.002Z,16.38
2023-01-05T03:26:47.637Z,16.77
2023-01-05T03:33:14.329Z,18.52
2023-01-05T03:39:18.057Z,14.25
2023-01-05T03:45:20.894Z,21.27
2023-01-05T03:51:22.674Z,17.90
2023-01-05T03:57:24.440Z,19.05
2023-01-05T04:03:31.401Z,13.77
2023-01-05T04:09:33.937Z,19.80
2023-01-05T04:15:35.810Z,21.13
2023-01-05T04:21:37.675Z,17.52
2023-01-05T04:27:39.401Z,16.40
2023-01-05T04:33:41.177Z,17.30
2023-01-05T04:39:42.985Z,16.45
2023-01-05T04:45:49.698Z,23.05
2023-01-05T04:51:51.655Z,16.88
2023-01-05T04:57:53.396Z,19.98
2023-01-05T05:03:55.168Z,14.88
2023-01-05T05:09:56.907Z,20.92
2023-01-05T05:15:58.779Z,15.05
2023-01-05T05:22:00.480Z,21.08
2023-01-05T05:28:02.313Z,18.73
2023-01-05T05:34:04.239Z,17.80
2023-01-05T05:40:06.544Z,17.58
2023-01-05T05:46:08.530Z,13.80
2023-01-05T05:52:10.284Z,18.13
2023-01-05T05:58:12.089Z,15.35
2023-01-05T06:04:13.909Z,20.48
2023-01-05T06:10:15.703Z,16.45
2023-01-05T06:16:17.729Z,12.02
2023-01-05T06:22:19.450Z,13.27
2023-01-05T06:28:21.157Z,23.90
2023-01-05T06:34:22.914Z,18.05
2023-01-05T06:40:24.661Z,19.50
2023-01-05T06:46:26.392Z,15.65
2023-01-05T06:52:28.141Z,15.63
2023-01-05T06:58:29.847Z,23.63
2023-01-05T07:04:31.545Z,19.23
2023-01-05T07:10:33.369Z,16.35
2023-01-05T07:16:35.194Z,21.33
2023-01-05T07:22:36.966Z,16.80
2023-01-05T07:28:39.687Z,21.13
2023-01-05T07:34:41.419Z,13.27
2023-01-05T07:40:43.165Z,15.45
2023-01-05T07:46:44.966Z,24.10
2023-01-05T07:52:46.773Z,16.90
2023-01-05T07:58:48.586Z,14.85
2023-01-05T08:04:50.358Z,15.23
2023-01-05T08:10:52.204Z,22.20
2023-01-05T08:16:54.027Z,15.27
2023-01-05T08:22:55.912Z,17.45
2023-01-05T08:28:57.760Z,16.38
2023-01-05T08:34:59.539Z,19.70
2023-01-05T08:41:01.285Z,17.90
2023-01-05T08:47:03.016Z,14.90
2023-01-05T08:53:05.102Z,18.80
2023-01-05T08:59:07.045Z,12.57
2023-01-05T09:05:10.349Z,16.55
2023-01-05T09:11:13.534Z,14.02
2023-01-05T09:17:15.331Z,17.27
2023-01-05T09:23:17.061Z,17.73
2023-01-05T09:29:18.845Z,13.50
2023-01-05T09:35:20.681Z,16.77
2023-01-05T09:41:22.873Z,16.05
2023-01-05T09:47:36.738Z,13.57
2023-01-05T09:53:39.764Z,18.73
2023-01-05T09:59:58.718Z,13.25
2023-01-05T10:06:00.611Z,14.27
2023-01-05T10:12:38.430Z,18.90
2023-01-05T10:18:40.276Z,18.48
2023-01-05T10:25:14.791Z,15.82
2023-01-05T10:31:22.948Z,13.18
2023-01-05T10:37:44.530Z,14.25
2023-01-05T10:44:33.108Z,15.95
2023-01-05T10:50:38.649Z,16.80
2023-01-05T10:56:40.414Z,19.98
2023-01-05T11:02:50.964Z,16.17
2023-01-05T11:08:53.188Z,14.95
2023-01-05T11:14:58.973Z,12.93
2023-01-05T11:21:13.303Z,15.18
2023-01-05T11:27:33.418Z,14.17
2023-01-05T11:33:39.614Z,11.27
2023-01-05T11:39:49.785Z,9.13
2023-01-05T11:45:55.988Z,12.60
2023-01-05T11:51:57.821Z,14.32
2023-01-05T11:58:21.691Z,19.58
2023-01-05T12:04:29.656Z,9.65
2023-01-05T12:10:55.953Z,12.90
2023-01-05T12:17:01.021Z,10.82
2023-01-05T12:23:10.846Z,13.25
2023-01-05T12:36:35.200Z,12.38
2023-01-05T12:43:05.938Z,10.32
2023-01-05T12:49:39.972Z,15.20
2023-01-05T12:55:49.852Z,13.80
2023-01-05T13:02:16.028Z,8.60
2023-01-05T13:08:43.871Z,9.65
2023-01-05T13:15:01.022Z,11.02
2023-01-05T13:21:09.543Z,9.88
2023-01-05T13:27:15.395Z,12.25
2023-01-05T13:33:55.299Z,13.32
2023-01-05T13:40:15.880Z,12.85
2023-01-05T13:46:26.858Z,16.00
2023-01-05T13:52:53.036Z,12.48
2023-01-05T13:59:07.182Z,10.38
2023-01-05T14:05:33.969Z,13.65
2023-01-05T14:11:36.970Z,10.77
2023-01-05T14:17:55.642Z,8.60
2023-01-05T14:23:58.866Z,12.88
2023-01-05T14:30:01.345Z,14.73
2023-01-05T14:36:04.557Z,7.72
2023-01-05T14:42:12.020Z,11.30
2023-01-05T14:48:54.866Z,11.65
2023-01-05T14:55:05.883Z,13.30
2023-01-05T15:01:25.131Z,13.02
2023-01-05T15:07:51.285Z,20.13
2023-01-05T15:14:34.677Z,19.38
2023-01-05T15:20:58.198Z,16.05
2023-01-05T15:27:18.263Z,20.75
2023-01-05T15:33:22.763Z,24.85
2023-01-05T15:39:44.603Z,28.60
2023-01-05T15:45:51.441Z,21.17
2023-01-05T15:51:55.168Z,19.00
2023-01-05T15:58:13.559Z,22.57
2023-01-05T16:04:15.633Z,23.58
2023-01-05T16:10:29.124Z,27.85
2023-01-05T16:16:52.536Z,21.85
2023-01-05T16:23:24.780Z,22.47
2023-01-05T16:29:40.805Z,21.50
2023-01-05T16:35:50.794Z,16.52
2023-01-05T16:42:38.104Z,16.45
2023-01-05T16:48:39.920Z,23.00
2023-01-05T16:54:44.395Z,21.23
2023-01-05T17:00:46.169Z,19.38
2023-01-05T17:06:50.976Z,24.35
2023-01-05T17:13:03.362Z,29.65
2023-01-05T17:19:13.113Z,25.92
2023-01-05T17:25:15.009Z,22.45
2023-01-05T17:31:16.751Z,32.30
2023-01-05T17:37:18.593Z,18.60
2023-01-05T17:43:20.435Z,25.17
2023-01-05T17:49:22.891Z,28.45
2023-01-05T17:55:25.921Z,20.75
2023-01-05T18:01:27.681Z,26.40
2023-01-05T18:07:30.910Z,31.13
2023-01-05T18:13:33.454Z,22.35
2023-01-05T18:19:35.245Z,30.92
2023-01-05T18:25:39.311Z,26.13
2023-01-05T18:31:43.436Z,31.80
2023-01-05T18:37:45.503Z,25.73
2023-01-05T18:43:47.294Z,25.98
2023-01-05T18:49:49.180Z,33.78
2023-01-05T18:55:50.945Z,33.92
2023-01-05T19:01:52.739Z,26.88
2023-01-05T19:07:54.650Z,31.23
2023-01-05T19:13:59.318Z,24.13
2023-01-05T19:26:05.425Z,25.60
2023-01-05T19:32:07.099Z,36.75
2023-01-05T19:38:10.952Z,24.20
2023-01-05T19:44:15.210Z,28.83
2023-01-05T19:50:17.017Z,30.10
2023-01-05T19:56:18.717Z,29.02
2023-01-05T20:02:20.443Z,34.03
2023-01-05T20:08:22.357Z,29.00
2023-01-05T20:14:30.976Z,32.53
2023-01-05T20:20:32.726Z,30.60
2023-01-05T20:26:34.435Z,35.80
2023-01-05T20:32:36.327Z,36.30
2023-01-05T20:38:38.008Z,31.85
2023-01-05T20:44:44.506Z,32.63
2023-01-05T20:50:46.329Z,33.60
2023-01-05T20:56:49.299Z,34.80
2023-01-05T21:02:51.729Z,32.35
2023-01-05T21:08:53.787Z,39.35
2023-01-05T21:14:55.483Z,30.42
2023-01-05T21:20:57.421Z,33.22
2023-01-05T21:26:59.161Z,29.42
2023-01-05T21:33:00.886Z,37.22
2023-01-05T21:39:07.239Z,28.70
2023-01-05T21:45:10.874Z,25.17
2023-01-05T21:51:31.291Z,24.98
2023-01-05T21:57:33.084Z,26.67
2023-01-05T22:03:34.987Z,21.30
2023-01-05T22:09:37.459Z,25.23
2023-01-05T22:15:39.176Z,38.60
2023-01-05T22:21:41.016Z,28.95
2023-01-05T22:27:42.774Z,31.98
2023-01-05T22:33:47.920Z,28.70
2023-01-05T22:39:49.652Z,39.47
2023-01-05T22:45:51.977Z,38.55
2023-01-05T22:51:53.778Z,31.13
2023-01-05T22:57:55.523Z,29.02
2023-01-05T23:03:59.291Z,37.63
2023-01-05T23:10:01.092Z,35.43
2023-01-05T23:16:03.754Z,35.60
2023-01-05T23:22:05.503Z,33.47
2023-01-05T23:28:07.234Z,32.03
2023-01-05T23:34:08.936Z,26.38
2023-01-05T23:40:11.094Z,24.27
2023-01-05T23:46:20.203Z,25.67
2023-01-05T23:52:22.165Z,25.48
2023-01-05T23:58:23.873Z,29.50
